Time;durP1;ratioP1;P1;durP2;ratioP2;P2;SDS_P1;SDS_P2;PMS_P1;PMS_P2;Temp;Humidity;BMP_temperature;BMP_pressure;BME280_temperature;BME280_humidity;BME280_pressure;Samples;Min_cycle;Max_cycle;Signal;HPM_P1;HPM_P2
2021/01/05 00:00:47;;;;;;;9.40;7.53;;;1.50;99.90;;;;;;4861432;29;20817;-94
2021/01/05 00:05:48;;;;;;;10.53;7.70;;;1.50;99.90;;;;;;5215098;23;20241;-96
2021/01/05 00:08:15;;;;;;;12.20;8.60;;;1.50;99.90;;;;;;4860928;29;20451;-93
2021/01/05 00:10:41;;;;;;;12.40;8.07;;;1.50;99.90;;;;;;4857150;29;20443;-95
2021/01/05 00:13:06;;;;;;;9.70;7.50;;;1.60;99.90;;;;;;4862485;29;20482;-93
2021/01/05 00:15:32;;;;;;;12.00;8.87;;;1.50;99.90;;;;;;4859083;29;20202;-91
2021/01/05 00:17:58;;;;;;;10.00;7.43;;;1.40;99.90;;;;;;4848179;29;20221;-92
2021/01/05 00:20:29;;;;;;;9.87;8.17;;;1.40;99.90;;;;;;4857100;29;20483;-92
2021/01/05 00:22:55;;;;;;;11.57;7.53;;;1.40;99.90;;;;;;4852496;29;20190;-92
2021/01/05 00:25:22;;;;;;;11.27;7.50;;;1.50;99.90;;;;;;4852498;29;20502;-92
2021/01/05 00:27:48;;;;;;;9.87;7.27;;;1.50;99.90;;;;;;4853331;29;20456;-92
2021/01/05 00:30:15;;;;;;;10.80;8.43;;;1.50;99.90;;;;;;4854566;29;20832;-93
2021/01/05 00:32:43;;;;;;;9.03;7.40;;;1.50;99.90;;;;;;4844295;29;20518;-93
2021/01/05 00:35:12;;;;;;;10.77;7.70;;;1.50;99.90;;;;;;4849476;29;20542;-93
2021/01/05 00:37:38;;;;;;;11.53;7.70;;;1.50;99.90;;;;;;4852320;29;20541;-93
2021/01/05 00:40:06;;;;;;;11.00;7.03;;;1.50;99.90;;;;;;4854818;29;20439;-91
2021/01/05 00:42:32;;;;;;;10.00;7.20;;;1.60;99.90;;;;;;4848735;29;20452;-93
2021/01/05 00:44:57;;;;;;;10.23;7.80;;;1.60;99.90;;;;;;4853240;29;20461;-93
2021/01/05 00:47:23;;;;;;;11.40;7.53;;;1.50;99.90;;;;;;4850163;29;20281;-92
2021/01/05 00:49:51;;;;;;;11.67;7.53;;;1.60;99.90;;;;;;4849067;29;20692;-92
2021/01/05 00:52:17;;;;;;;7.87;6.60;;;1.60;99.90;;;;;;4851777;29;20699;-92
2021/01/05 00:54:42;;;;;;;12.43;7.93;;;1.60;99.90;;;;;;4852059;29;20447;-91
2021/01/05 00:57:10;;;;;;;9.57;7.00;;;1.60;99.90;;;;;;4854185;29;20209;-91
2021/01/05 00:59:36;;;;;;;9.37;7.80;;;1.60;99.90;;;;;;4847638;29;20198;-92
2021/01/05 01:02:04;;;;;;;10.80;7.53;;;1.60;99.90;;;;;;4849172;29;20483;-92
2021/01/05 01:04:31;;;;;;;11.73;7.90;;;1.60;99.90;;;;;;4853056;29;20544;-92
2021/01/05 01:06:57;;;;;;;11.17;7.70;;;1.60;99.90;;;;;;4850500;29;20451;-91
2021/01/05 01:09:23;;;;;;;13.53;8.73;;;1.50;99.90;;;;;;4865355;29;20451;-92
2021/01/05 01:12:00;;;;;;;12.83;8.23;;;1.50;99.90;;;;;;4850449;29;20458;-91
2021/01/05 01:14:29;;;;;;;13.00;8.03;;;1.60;99.90;;;;;;4847831;29;20530;-91
2021/01/05 01:16:55;;;;;;;11.30;7.93;;;1.60;99.90;;;;;;4851815;29;20508;-91
2021/01/05 01:19:21;;;;;;;13.13;8.20;;;1.50;99.90;;;;;;4851204;29;20471;-92
2021/01/05 01:21:47;;;;;;;13.90;8.70;;;1.60;99.90;;;;;;4853462;29;20184;-93
2021/01/05 01:24:13;;;;;;;12.00;8.20;;;1.60;99.90;;;;;;4848793;29;20633;-93
2021/01/05 01:26:44;;;;;;;12.27;8.40;;;1.60;99.90;;;;;;4851886;29;20448;-93
2021/01/05 01:29:16;;;;;;;11.77;8.67;;;1.60;99.90;;;;;;4853917;29;20459;-93
2021/01/05 01:31:42;;;;;;;11.90;8.47;;;1.60;99.90;;;;;;4850837;29;20867;-92
2021/01/05 01:34:09;;;;;;;11.90;8.37;;;1.50;99.90;;;;;;4854184;29;20817;-92
2021/01/05 01:36:34;;;;;;;11.90;8.67;;;1.60;99.90;;;;;;4849631;29;20190;-92
2021/01/05 01:39:00;;;;;;;9.33;7.23;;;1.60;99.90;;;;;;4851228;29;20459;-94
2021/01/05 01:41:26;;;;;;;11.97;9.40;;;1.60;99.90;;;;;;4850085;29;20210;-90
2021/01/05 01:43:55;;;;;;;10.10;7.40;;;1.60;99.90;;;;;;4857171;29;20478;-91
2021/01/05 01:46:22;;;;;;;11.83;8.80;;;1.60;99.90;;;;;;4854601;29;20577;-91
2021/01/05 01:48:50;;;;;;;15.43;8.57;;;1.70;99.90;;;;;;4852619;29;20474;-92
2021/01/05 01:51:16;;;;;;;13.70;9.03;;;1.80;99.90;;;;;;4855805;29;20451;-91
2021/01/05 01:53:55;;;;;;;12.23;8.23;;;1.70;99.90;;;;;;4851669;29;20480;-91
2021/01/05 01:56:31;;;;;;;12.10;8.40;;;1.70;99.90;;;;;;4850200;29;20554;-93
2021/01/05 01:59:02;;;;;;;12.07;7.70;;;1.60;99.90;;;;;;4855391;29;20479;-92
2021/01/05 02:01:56;;;;;;;14.67;9.93;;;1.70;99.90;;;;;;4867910;29;20512;-91
2021/01/05 02:04:44;;;;;;;13.77;8.93;;;1.60;99.90;;;;;;4853157;29;20547;-93
2021/01/05 02:07:37;;;;;;;12.97;8.87;;;1.50;99.90;;;;;;4852977;29;20459;-90
2021/01/05 02:10:30;;;;;;;14.20;9.27;;;1.50;99.90;;;;;;4855365;29;20483;-91
2021/01/05 02:13:17;;;;;;;13.10;9.57;;;1.60;99.90;;;;;;4848212;29;20940;-91
2021/01/05 02:16:03;;;;;;;12.90;9.13;;;1.60;99.90;;;;;;4855454;29;21023;-93
2021/01/05 02:18:58;;;;;;;16.77;10.57;;;1.60;99.90;;;;;;4837676;29;20453;-93
2021/01/05 02:21:29;;;;;;;16.83;11.10;;;1.60;99.90;;;;;;4831040;29;20460;-92
2021/01/05 02:24:35;;;;;;;14.20;10.00;;;1.50;99.90;;;;;;4850697;29;20505;-92
2021/01/05 02:27:11;;;;;;;14.40;9.73;;;1.50;99.90;;;;;;4841660;29;20474;-91
2021/01/05 02:29:49;;;;;;;17.13;9.73;;;1.50;99.90;;;;;;4855202;29;20485;-90
2021/01/05 02:32:29;;;;;;;15.53;9.57;;;1.50;99.90;;;;;;4861871;29;20849;-91
2021/01/05 02:35:15;;;;;;;14.33;9.50;;;1.50;99.90;;;;;;4851346;29;20459;-90
2021/01/05 02:38:08;;;;;;;13.70;9.70;;;1.50;99.90;;;;;;4849671;29;20443;-91
2021/01/05 02:40:57;;;;;;;15.33;9.97;;;1.60;99.90;;;;;;4855523;29;20452;-92
2021/01/05 02:43:49;;;;;;;13.53;10.27;;;1.60;99.90;;;;;;4852306;29;20447;-91
2021/01/05 02:46:24;;;;;;;14.03;9.90;;;1.70;99.90;;;;;;4863922;29;20598;-90
2021/01/05 02:49:09;;;;;;;16.03;10.40;;;1.60;99.90;;;;;;4855692;29;20552;-90
2021/01/05 02:51:47;;;;;;;13.53;8.73;;;1.60;99.90;;;;;;4855266;29;20461;-92
2021/01/05 02:54:33;;;;;;;16.07;9.63;;;1.60;99.90;;;;;;4852936;29;20490;-91
2021/01/05 02:57:17;;;;;;;14.77;9.33;;;1.60;99.90;;;;;;4851458;29;20960;-91
2021/01/05 03:00:31;;;;;;;12.63;9.30;;;1.60;99.90;;;;;;4851392;29;20460;-91
2021/01/05 03:03:00;;;;;;;15.03;10.13;;;1.70;99.90;;;;;;4844846;29;20544;-92
2021/01/05 03:05:26;;;;;;;15.23;10.47;;;1.70;99.90;;;;;;4853275;29;20813;-91
2021/01/05 03:07:53;;;;;;;12.67;8.73;;;1.70;99.90;;;;;;4855886;29;21074;-91
2021/01/05 03:10:33;;;;;;;16.07;11.10;;;1.70;99.90;;;;;;4854314;29;20270;-91
2021/01/05 03:13:05;;;;;;;13.73;9.87;;;1.60;99.90;;;;;;4846977;29;20495;-91
2021/01/05 03:15:53;;;;;;;14.93;10.30;;;1.60;99.90;;;;;;4852184;29;20444;-92
2021/01/05 03:18:24;;;;;;;15.17;9.60;;;1.50;99.90;;;;;;4845934;29;20522;-92
2021/01/05 03:20:59;;;;;;;15.73;9.97;;;1.50;99.90;;;;;;4852025;29;20450;-92
2021/01/05 03:23:27;;;;;;;13.03;9.20;;;1.50;99.90;;;;;;4854663;29;20793;-91
2021/01/05 03:25:54;;;;;;;14.70;10.30;;;1.50;99.90;;;;;;4856110;29;20470;-92
2021/01/05 03:28:24;;;;;;;17.10;10.87;;;1.60;99.90;;;;;;4853652;29;20486;-91
2021/01/05 03:31:03;;;;;;;19.73;11.43;;;1.60;99.90;;;;;;4854608;29;20491;-91
2021/01/05 03:33:29;;;;;;;18.53;10.80;;;1.60;99.90;;;;;;4851467;29;20479;-93
2021/01/05 03:35:54;;;;;;;15.53;10.50;;;1.60;99.90;;;;;;4854248;29;20925;-92
2021/01/05 03:38:20;;;;;;;14.90;11.03;;;1.50;99.90;;;;;;4853901;29;20287;-93
2021/01/05 03:40:46;;;;;;;17.57;12.30;;;1.40;99.90;;;;;;4850189;29;20656;-92
2021/01/05 03:43:11;;;;;;;17.03;11.30;;;1.50;99.90;;;;;;4851922;29;20570;-92
2021/01/05 03:45:37;;;;;;;16.47;10.50;;;1.40;99.90;;;;;;4854129;29;20190;-91
2021/01/05 03:48:03;;;;;;;14.03;9.73;;;1.50;99.90;;;;;;4854366;29;20229;-91
2021/01/05 03:50:29;;;;;;;16.90;10.40;;;1.50;99.90;;;;;;4856206;29;20854;-92
2021/01/05 03:52:56;;;;;;;17.40;10.97;;;1.60;99.90;;;;;;4847475;29;20501;-93
2021/01/05 03:55:22;;;;;;;15.80;10.77;;;1.60;99.90;;;;;;4854219;29;20186;-93
2021/01/05 03:57:48;;;;;;;15.60;10.90;;;1.60;99.90;;;;;;4859302;29;20486;-92
2021/01/05 04:00:25;;;;;;;17.97;11.17;;;1.60;99.90;;;;;;4858887;29;20333;-92
2021/01/05 04:02:52;;;;;;;17.70;12.03;;;1.60;99.90;;;;;;4852607;29;20254;-93
2021/01/05 04:05:18;;;;;;;17.80;11.77;;;1.60;99.90;;;;;;4854136;29;20468;-92
2021/01/05 04:07:44;;;;;;;16.60;10.77;;;1.60;99.90;;;;;;4855010;29;20464;-93
2021/01/05 04:10:10;;;;;;;17.70;11.50;;;1.60;99.90;;;;;;4851402;29;20456;-93
2021/01/05 04:12:37;;;;;;;17.40;11.27;;;1.60;99.90;;;;;;4855812;29;20218;-93
2021/01/05 04:15:06;;;;;;;16.13;11.10;;;1.70;99.90;;;;;;4847024;29;20815;-93
2021/01/05 04:17:31;;;;;;;15.80;12.00;;;1.70;99.90;;;;;;4850456;29;20526;-92
2021/01/05 04:19:57;;;;;;;18.50;10.27;;;1.60;99.90;;;;;;4865007;29;21041;-92
2021/01/05 04:22:22;;;;;;;18.70;11.90;;;1.60;99.90;;;;;;4847554;29;20218;-93
2021/01/05 04:24:48;;;;;;;17.53;12.10;;;1.60;99.90;;;;;;4854857;29;20297;-94
2021/01/05 04:27:14;;;;;;;16.90;10.70;;;1.60;99.90;;;;;;4851141;29;20276;-93
2021/01/05 04:29:39;;;;;;;16.43;12.20;;;1.60;99.90;;;;;;4851085;29;20710;-94
2021/01/05 04:32:05;;;;;;;16.60;12.10;;;1.70;99.90;;;;;;4858644;29;20273;-93
2021/01/05 04:34:30;;;;;;;18.27;12.03;;;1.60;99.90;;;;;;4852558;29;20313;-93
2021/01/05 04:36:56;;;;;;;17.50;12.00;;;1.60;99.90;;;;;;4855147;29;20205;-93
2021/01/05 04:39:22;;;;;;;17.27;11.40;;;1.70;99.90;;;;;;4854889;29;20594;-94
2021/01/05 04:42:03;;;;;;;19.63;12.50;;;1.70;99.90;;;;;;4855986;29;21650;-93
2021/01/05 04:44:33;;;;;;;19.17;12.37;;;1.70;99.90;;;;;;4853266;29;20194;-93
2021/01/05 04:47:25;;;;;;;18.17;12.53;;;1.80;99.90;;;;;;4852840;29;20457;-94
2021/01/05 04:50:06;;;;;;;16.03;11.80;;;1.80;99.90;;;;;;4821692;29;20442;-94
2021/01/05 04:52:53;;;;;;;17.40;11.50;;;1.80;99.90;;;;;;4853869;29;20472;-93
2021/01/05 04:55:50;;;;;;;22.40;13.50;;;1.80;99.90;;;;;;4852604;29;21032;-94
2021/01/05 04:58:31;;;;;;;18.40;11.83;;;1.70;99.90;;;;;;4845164;29;20533;-93
2021/01/05 05:00:58;;;;;;;20.50;13.67;;;1.70;99.90;;;;;;4852810;29;20495;-94
2021/01/05 05:03:42;;;;;;;19.40;13.07;;;1.70;99.90;;;;;;4857287;29;20763;-94
2021/01/05 05:06:30;;;;;;;20.00;13.50;;;1.70;99.90;;;;;;4849813;29;20503;-95
2021/01/05 05:09:02;;;;;;;22.87;13.43;;;1.70;99.90;;;;;;4851888;29;20466;-93
2021/01/05 05:11:50;;;;;;;20.30;13.17;;;1.70;99.90;;;;;;4848164;29;20447;-92
2021/01/05 05:14:38;;;;;;;20.23;13.03;;;1.60;99.90;;;;;;4857725;29;20475;-93
2021/01/05 05:17:34;;;;;;;24.03;14.70;;;1.60;99.90;;;;;;4854651;29;20451;-93
2021/01/05 05:20:00;;;;;;;23.00;13.97;;;1.70;99.90;;;;;;4853597;29;20455;-92
2021/01/05 05:22:33;;;;;;;23.03;14.00;;;1.70;99.90;;;;;;4866917;29;20510;-93
2021/01/05 05:25:05;;;;;;;19.97;13.10;;;1.60;99.90;;;;;;4858097;29;20629;-95
2021/01/05 05:27:47;;;;;;;24.97;15.07;;;1.60;99.90;;;;;;4859293;29;20453;-94
2021/01/05 05:30:38;;;;;;;23.03;14.80;;;1.60;99.90;;;;;;4852425;29;20455;-96
2021/01/05 05:33:27;;;;;;;25.27;14.10;;;1.70;99.90;;;;;;4857241;29;20486;-94
2021/01/05 05:36:30;;;;;;;25.17;15.20;;;1.60;99.90;;;;;;4853824;29;20463;-94
2021/01/05 05:39:04;;;;;;;22.97;14.93;;;1.50;99.90;;;;;;4854595;29;20549;-95
2021/01/05 05:41:38;;;;;;;25.30;14.50;;;1.50;99.90;;;;;;4851485;29;20510;-94
2021/01/05 05:44:39;;;;;;;28.97;16.50;;;1.50;99.90;;;;;;4856148;29;20454;-94
2021/01/05 05:47:13;;;;;;;26.13;16.23;;;1.60;99.90;;;;;;4801992;29;20483;-95
2021/01/05 05:50:20;;;;;;;25.80;15.70;;;1.60;99.90;;;;;;4855343;29;20451;-95
2021/01/05 05:52:56;;;;;;;27.43;15.67;;;1.50;99.90;;;;;;4846356;29;20507;-93
2021/01/05 05:55:54;;;;;;;27.63;15.27;;;1.50;99.90;;;;;;4858012;29;20450;-93
2021/01/05 05:58:39;;;;;;;23.00;13.73;;;1.50;99.90;;;;;;4854882;29;20478;-93
2021/01/05 06:01:28;;;;;;;26.87;15.40;;;1.60;99.90;;;;;;4850980;29;20550;-94
2021/01/05 06:03:56;;;;;;;25.13;14.80;;;1.70;99.90;;;;;;4855432;29;20482;-94
2021/01/05 06:06:23;;;;;;;27.80;15.13;;;1.70;99.90;;;;;;4851405;29;20462;-91
2021/01/05 06:08:49;;;;;;;23.30;15.53;;;1.70;99.90;;;;;;4850931;29;20709;-92
2021/01/05 06:11:14;;;;;;;30.07;14.50;;;1.70;99.90;;;;;;4854098;29;20973;-92
2021/01/05 06:13:40;;;;;;;25.37;16.77;;;1.60;99.90;;;;;;4849290;29;20257;-90
2021/01/05 06:16:06;;;;;;;28.33;16.30;;;1.60;99.90;;;;;;4852340;29;20201;-91
2021/01/05 06:18:32;;;;;;;24.00;15.80;;;1.60;99.90;;;;;;4849279;29;20447;-92
2021/01/05 06:20:58;;;;;;;32.27;17.67;;;1.60;99.90;;;;;;4850793;29;20509;-91
2021/01/05 06:23:23;;;;;;;25.73;16.30;;;1.70;99.90;;;;;;4850784;29;20227;-91
2021/01/05 06:25:49;;;;;;;25.27;15.93;;;1.70;99.90;;;;;;4847209;29;20194;-90
2021/01/05 06:28:15;;;;;;;32.60;16.57;;;1.70;99.90;;;;;;4857593;29;20526;-92
2021/01/05 06:30:40;;;;;;;25.77;15.60;;;1.80;99.90;;;;;;4858468;29;20191;-91
2021/01/05 06:33:06;;;;;;;27.13;16.33;;;1.70;99.90;;;;;;4853528;29;20525;-93
2021/01/05 06:35:32;;;;;;;26.83;17.00;;;1.70;99.90;;;;;;4852692;29;20209;-92
2021/01/05 06:37:58;;;;;;;28.43;17.70;;;1.70;99.90;;;;;;4856771;29;20455;-92
2021/01/05 06:40:26;;;;;;;25.07;16.57;;;1.70;99.90;;;;;;4856904;29;20525;-92
2021/01/05 06:42:53;;;;;;;26.67;16.20;;;1.60;99.90;;;;;;4854596;29;20220;-93
2021/01/05 06:45:24;;;;;;;28.40;18.23;;;1.60;99.90;;;;;;4858197;29;20786;-93
2021/01/05 06:47:50;;;;;;;30.43;19.80;;;1.60;99.90;;;;;;4857058;29;20447;-91
2021/01/05 06:50:17;;;;;;;28.07;18.10;;;1.70;99.90;;;;;;4854265;29;20448;-92
2021/01/05 06:52:43;;;;;;;26.70;16.17;;;1.70;99.90;;;;;;4852819;29;20492;-92
2021/01/05 06:55:09;;;;;;;26.93;16.40;;;1.80;99.90;;;;;;4869142;29;20880;-90
2021/01/05 06:57:34;;;;;;;24.47;15.00;;;1.80;99.90;;;;;;4862556;29;20250;-91
2021/01/05 07:00:00;;;;;;;27.70;17.13;;;1.70;99.90;;;;;;4855735;29;20953;-91
2021/01/05 07:02:26;;;;;;;32.23;19.60;;;1.80;99.90;;;;;;4850730;29;20203;-90
2021/01/05 07:04:52;;;;;;;31.87;18.00;;;1.80;99.90;;;;;;4855225;29;20544;-92
2021/01/05 07:07:17;;;;;;;31.10;18.57;;;1.80;99.90;;;;;;4859098;29;20198;-90
2021/01/05 07:09:43;;;;;;;29.87;18.63;;;1.80;99.90;;;;;;4855778;29;20197;-92
2021/01/05 07:12:09;;;;;;;28.57;18.97;;;1.80;99.90;;;;;;4852275;29;20205;-92
2021/01/05 07:14:35;;;;;;;31.03;20.57;;;1.80;99.90;;;;;;4853994;29;20343;-91
2021/01/05 07:17:01;;;;;;;30.83;21.30;;;1.90;99.90;;;;;;4854179;29;20444;-90
2021/01/05 07:19:26;;;;;;;27.37;17.40;;;1.90;99.90;;;;;;4851243;29;20524;-89
2021/01/05 07:21:52;;;;;;;27.10;17.37;;;1.90;99.90;;;;;;4852221;29;20194;-89
2021/01/05 07:24:18;;;;;;;27.10;16.37;;;1.90;99.90;;;;;;4856892;29;20288;-89
2021/01/05 07:26:49;;;;;;;26.60;17.60;;;2.00;99.90;;;;;;4852861;29;20199;-92
2021/01/05 07:29:19;;;;;;;27.20;17.30;;;1.90;99.90;;;;;;4850464;29;20456;-92
2021/01/05 07:31:45;;;;;;;27.93;16.90;;;2.00;99.90;;;;;;4847943;29;22136;-91
2021/01/05 07:34:12;;;;;;;24.47;16.90;;;1.90;99.90;;;;;;4853415;29;20492;-92
2021/01/05 07:36:47;;;;;;;28.73;17.37;;;1.90;99.90;;;;;;4857625;29;20512;-93
2021/01/05 07:39:25;;;;;;;25.67;15.93;;;1.90;99.90;;;;;;4853774;29;20462;-92
2021/01/05 07:41:52;;;;;;;26.60;17.13;;;2.00;99.90;;;;;;4854975;29;20582;-93
2021/01/05 07:44:18;;;;;;;27.27;16.40;;;2.00;99.90;;;;;;4852950;29;20524;-91
2021/01/05 07:46:45;;;;;;;27.17;16.20;;;1.90;99.90;;;;;;4854717;29;20542;-92
2021/01/05 07:49:11;;;;;;;29.63;17.27;;;2.00;99.90;;;;;;4852498;29;20190;-93
2021/01/05 07:51:36;;;;;;;29.63;17.20;;;2.00;99.90;;;;;;4855045;29;20449;-91
2021/01/05 07:54:02;;;;;;;24.20;15.90;;;1.90;99.90;;;;;;4855029;29;20574;-91
2021/01/05 07:56:28;;;;;;;27.90;16.63;;;2.00;99.90;;;;;;4854996;29;20236;-89
2021/01/05 07:58:54;;;;;;;24.00;15.63;;;2.00;99.90;;;;;;4853643;29;20492;-91
2021/01/05 08:01:19;;;;;;;26.90;16.40;;;1.90;99.90;;;;;;4854077;29;20645;-94
2021/01/05 08:03:45;;;;;;;25.77;16.80;;;2.00;99.90;;;;;;4851156;29;20189;-90
2021/01/05 08:06:11;;;;;;;27.93;16.43;;;2.10;99.90;;;;;;4857854;29;20200;-89
2021/01/05 08:08:40;;;;;;;27.17;17.50;;;2.10;99.90;;;;;;4857743;29;20793;-89
2021/01/05 08:11:05;;;;;;;27.77;17.53;;;2.10;99.90;;;;;;4867788;29;20452;-88
2021/01/05 08:13:31;;;;;;;28.03;18.17;;;2.00;99.90;;;;;;4858590;29;20539;-92
2021/01/05 08:15:57;;;;;;;27.73;17.13;;;2.00;99.90;;;;;;4850022;29;20194;-92
2021/01/05 08:18:22;;;;;;;25.23;16.47;;;2.00;99.90;;;;;;4851302;29;20389;-91
2021/01/05 08:20:48;;;;;;;27.83;15.90;;;2.00;99.90;;;;;;4858417;29;20670;-91
2021/01/05 08:23:14;;;;;;;29.43;18.43;;;2.10;99.90;;;;;;4856257;29;20203;-92
2021/01/05 08:25:40;;;;;;;31.57;19.70;;;2.00;99.90;;;;;;4851274;29;20953;-92
2021/01/05 08:30:39;;;;;;;29.20;18.00;;;2.00;99.90;;;;;;4846950;29;20276;-95
2021/01/05 08:33:09;;;;;;;43.90;22.30;;;2.00;99.90;;;;;;4846243;29;20591;-94
2021/01/05 08:35:36;;;;;;;30.63;18.93;;;2.10;99.90;;;;;;4839452;29;20885;-89
2021/01/05 08:38:04;;;;;;;31.50;18.50;;;2.10;99.90;;;;;;4845164;29;20544;-90
2021/01/05 08:40:32;;;;;;;24.93;17.23;;;2.10;99.90;;;;;;4845935;29;20447;-90
2021/01/05 08:43:01;;;;;;;23.23;15.87;;;2.10;99.90;;;;;;4847202;29;20458;-90
2021/01/05 08:45:28;;;;;;;26.00;15.93;;;2.10;99.90;;;;;;4848906;29;20552;-90
2021/01/05 08:47:53;;;;;;;22.30;15.43;;;2.10;99.90;;;;;;4844813;29;20850;-90
2021/01/05 08:50:29;;;;;;;21.47;14.50;;;2.20;99.90;;;;;;4842853;29;20488;-90
2021/01/05 08:52:59;;;;;;;25.87;16.67;;;2.10;99.90;;;;;;4843405;29;20225;-90
2021/01/05 08:55:25;;;;;;;26.77;16.40;;;2.10;99.90;;;;;;4841112;29;20444;-91
2021/01/05 08:57:51;;;;;;;24.77;16.07;;;2.10;99.90;;;;;;4840790;29;20451;-90
2021/01/05 09:00:17;;;;;;;26.00;16.83;;;2.00;99.90;;;;;;4841632;29;20456;-91
2021/01/05 09:02:42;;;;;;;28.67;17.60;;;2.10;99.90;;;;;;4839540;29;20209;-87
2021/01/05 09:05:09;;;;;;;24.93;14.70;;;2.10;99.90;;;;;;4838896;29;20678;-90
2021/01/05 09:07:35;;;;;;;21.23;14.40;;;2.10;99.90;;;;;;4836843;29;20196;-90
2021/01/05 09:10:01;;;;;;;23.57;16.00;;;2.20;99.90;;;;;;4847856;29;20686;-89
2021/01/05 09:12:34;;;;;;;23.77;15.53;;;2.20;99.90;;;;;;4842692;29;20191;-90
2021/01/05 09:15:00;;;;;;;24.83;16.23;;;2.20;99.90;;;;;;4843148;29;21535;-91
2021/01/05 09:17:26;;;;;;;24.30;14.90;;;2.20;99.90;;;;;;4841617;29;20454;-87
2021/01/05 09:19:51;;;;;;;23.97;16.77;;;2.20;99.90;;;;;;4845595;29;20459;-88
2021/01/05 09:22:22;;;;;;;25.60;16.27;;;2.20;99.90;;;;;;4850871;29;20650;-90
2021/01/05 09:24:47;;;;;;;23.97;16.33;;;2.20;99.90;;;;;;4845403;29;20646;-87
2021/01/05 09:27:13;;;;;;;28.20;17.60;;;2.20;99.90;;;;;;4842570;29;20447;-89
2021/01/05 09:29:39;;;;;;;32.57;18.77;;;2.20;99.90;;;;;;4847641;29;20199;-90
2021/01/05 09:32:04;;;;;;;28.70;17.50;;;2.10;99.90;;;;;;4844065;29;20202;-89
2021/01/05 09:34:30;;;;;;;25.17;16.23;;;2.10;99.90;;;;;;4846966;29;20586;-89
2021/01/05 09:36:56;;;;;;;29.60;17.33;;;2.10;99.90;;;;;;4844576;29;20451;-90
2021/01/05 09:39:23;;;;;;;25.33;16.73;;;2.20;99.90;;;;;;4843581;29;20268;-90
2021/01/05 09:41:56;;;;;;;24.27;16.97;;;2.10;99.90;;;;;;4843556;29;20214;-86
2021/01/05 09:44:22;;;;;;;24.30;15.40;;;2.20;99.90;;;;;;4841556;29;20505;-89
2021/01/05 09:46:53;;;;;;;27.43;17.20;;;2.20;99.90;;;;;;4842053;29;20946;-91
2021/01/05 09:49:19;;;;;;;26.17;16.60;;;2.30;99.90;;;;;;4849248;29;20455;-91
2021/01/05 09:51:45;;;;;;;24.70;14.97;;;2.30;99.90;;;;;;4848834;29;20467;-92
2021/01/05 09:54:12;;;;;;;21.87;15.00;;;2.40;99.90;;;;;;4848081;29;20591;-92
2021/01/05 09:56:38;;;;;;;22.53;15.10;;;2.50;99.90;;;;;;4843352;29;20202;-92
2021/01/05 09:59:04;;;;;;;28.93;18.40;;;2.50;99.90;;;;;;4844687;29;20471;-92
2021/01/05 10:01:32;;;;;;;32.23;19.37;;;2.50;99.90;;;;;;4844758;29;20292;-90
2021/01/05 10:03:57;;;;;;;39.60;20.27;;;2.40;99.90;;;;;;4848792;29;20619;-91
2021/01/05 10:06:34;;;;;;;31.27;19.80;;;2.40;99.90;;;;;;4850091;29;20583;-91
2021/01/05 10:09:07;;;;;;;29.07;19.57;;;2.40;99.90;;;;;;4843921;29;20203;-91
2021/01/05 10:11:34;;;;;;;29.60;19.43;;;2.40;99.90;;;;;;4854515;29;20451;-91
2021/01/05 10:13:59;;;;;;;35.50;18.67;;;2.30;99.90;;;;;;4850635;29;20974;-91
2021/01/05 10:16:26;;;;;;;31.17;19.77;;;2.40;99.90;;;;;;4850611;29;20459;-93
2021/01/05 10:18:51;;;;;;;29.80;19.10;;;2.40;99.90;;;;;;4851558;29;20598;-92
2021/01/05 10:21:17;;;;;;;28.43;18.10;;;2.40;99.90;;;;;;4851094;29;20456;-93
2021/01/05 10:23:43;;;;;;;35.73;21.90;;;2.30;99.90;;;;;;4854539;29;20199;-91
2021/01/05 10:26:09;;;;;;;35.03;21.40;;;2.40;99.90;;;;;;4851027;29;20204;-93
2021/01/05 10:28:36;;;;;;;35.60;21.67;;;2.30;99.90;;;;;;4851107;29;20194;-94
2021/01/05 10:31:03;;;;;;;37.07;21.27;;;2.30;99.90;;;;;;4847379;29;20512;-93
2021/01/05 10:33:29;;;;;;;32.47;20.20;;;2.40;99.90;;;;;;4844071;29;20582;-93
2021/01/05 10:35:54;;;;;;;33.40;20.00;;;2.40;99.90;;;;;;4849769;29;20459;-94
2021/01/05 10:38:20;;;;;;;33.50;20.47;;;2.40;99.90;;;;;;4852559;29;20457;-92
2021/01/05 10:40:46;;;;;;;30.47;19.40;;;2.50;99.90;;;;;;4846927;29;20199;-93
2021/01/05 10:43:12;;;;;;;32.10;18.50;;;2.50;99.90;;;;;;4845939;29;20472;-92
2021/01/05 10:45:40;;;;;;;40.53;21.57;;;2.40;99.90;;;;;;4846438;29;20195;-92
2021/01/05 10:48:07;;;;;;;33.63;19.77;;;2.50;99.90;;;;;;4852191;29;20195;-93
2021/01/05 10:50:32;;;;;;;29.70;19.53;;;2.50;99.90;;;;;;4848496;29;20501;-93
2021/01/05 10:52:58;;;;;;;33.07;20.80;;;2.50;99.90;;;;;;4845503;29;20481;-94
2021/01/05 10:55:24;;;;;;;28.57;19.00;;;2.40;99.90;;;;;;4843624;29;20720;-94
2021/01/05 10:57:51;;;;;;;24.97;17.63;;;2.40;99.90;;;;;;4867639;29;20455;-92
2021/01/05 11:00:18;;;;;;;27.47;17.90;;;2.50;99.90;;;;;;4847416;29;20215;-91
2021/01/05 11:02:44;;;;;;;23.87;16.20;;;2.60;99.90;;;;;;4853705;29;20459;-92
2021/01/05 11:05:20;;;;;;;23.60;15.13;;;2.70;99.90;;;;;;4855926;29;20462;-96
2021/01/05 11:07:51;;;;;;;23.70;16.00;;;2.60;99.90;;;;;;4846143;29;20274;-94
2021/01/05 11:10:18;;;;;;;25.23;15.53;;;2.60;99.90;;;;;;4848779;29;20999;-92
2021/01/05 11:12:43;;;;;;;23.40;16.67;;;2.70;99.90;;;;;;4848927;29;20463;-92
2021/01/05 11:15:13;;;;;;;20.30;14.83;;;2.70;99.90;;;;;;4852081;29;20519;-93
2021/01/05 11:17:39;;;;;;;21.00;14.87;;;2.80;99.90;;;;;;4851486;29;20644;-91
2021/01/05 11:20:05;;;;;;;20.50;13.93;;;2.90;99.90;;;;;;4846304;29;20558;-91
2021/01/05 11:22:30;;;;;;;22.53;15.37;;;2.90;99.90;;;;;;4845679;29;20538;-90
2021/01/05 11:24:57;;;;;;;20.60;14.40;;;2.90;99.90;;;;;;4845766;29;20945;-92
2021/01/05 11:27:22;;;;;;;23.23;16.23;;;3.00;99.90;;;;;;4848543;29;20289;-90
2021/01/05 11:29:49;;;;;;;22.20;14.70;;;3.00;99.90;;;;;;4843253;29;20491;-91
2021/01/05 11:32:17;;;;;;;23.10;15.43;;;3.00;99.90;;;;;;4845284;29;20249;-90
2021/01/05 11:34:43;;;;;;;22.00;14.73;;;3.10;99.90;;;;;;4849652;29;20497;-91
2021/01/05 11:37:13;;;;;;;24.13;15.67;;;3.10;99.90;;;;;;4851371;29;20469;-94
2021/01/05 11:39:42;;;;;;;26.70;15.37;;;3.10;99.90;;;;;;4852876;29;20463;-94
2021/01/05 11:42:09;;;;;;;27.53;15.40;;;3.10;99.90;;;;;;4850778;29;20458;-91
2021/01/05 11:44:35;;;;;;;22.10;15.70;;;3.20;99.90;;;;;;4854175;29;20450;-93
2021/01/05 11:47:01;;;;;;;22.10;14.50;;;3.20;99.90;;;;;;4850037;29;20455;-93
2021/01/05 11:49:27;;;;;;;20.70;15.20;;;3.30;99.90;;;;;;4847493;29;20451;-95
2021/01/05 11:51:55;;;;;;;23.80;14.43;;;3.30;99.90;;;;;;4848024;29;20838;-93
2021/01/05 11:54:22;;;;;;;21.67;14.40;;;3.30;99.90;;;;;;4853410;29;20746;-91
2021/01/05 11:56:48;;;;;;;19.30;12.90;;;3.20;99.90;;;;;;4844784;29;20512;-92
2021/01/05 11:59:14;;;;;;;23.00;15.77;;;3.20;99.90;;;;;;4849786;29;20854;-90
2021/01/05 12:01:41;;;;;;;21.00;14.93;;;3.10;99.90;;;;;;4851724;29;20941;-90
2021/01/05 12:04:09;;;;;;;21.20;14.43;;;3.10;99.90;;;;;;4848731;29;20454;-90
2021/01/05 12:06:34;;;;;;;25.20;14.97;;;3.10;99.90;;;;;;4857942;29;20469;-92
2021/01/05 12:09:00;;;;;;;22.97;15.10;;;3.20;99.90;;;;;;4846851;29;20503;-91
2021/01/05 12:11:27;;;;;;;25.07;15.93;;;3.10;99.90;;;;;;4844848;29;20239;-90
2021/01/05 12:13:53;;;;;;;19.70;14.40;;;3.10;99.90;;;;;;4852459;29;20252;-90
2021/01/05 12:16:31;;;;;;;23.80;15.37;;;3.10;99.90;;;;;;4849877;29;20601;-89
2021/01/05 12:18:59;;;;;;;22.13;14.73;;;3.10;99.90;;;;;;4845427;29;20541;-89
2021/01/05 12:21:36;;;;;;;23.20;14.83;;;3.10;99.90;;;;;;4842373;29;20443;-89
2021/01/05 12:24:03;;;;;;;23.97;15.80;;;3.10;99.90;;;;;;4849851;29;20462;-89
2021/01/05 12:26:32;;;;;;;21.33;15.30;;;3.20;99.90;;;;;;4845956;29;20825;-89
2021/01/05 12:28:59;;;;;;;21.67;14.50;;;3.20;99.90;;;;;;4849272;29;20518;-89
2021/01/05 12:31:26;;;;;;;23.00;15.53;;;3.20;99.90;;;;;;4847689;29;20993;-90
2021/01/05 12:33:52;;;;;;;22.67;15.20;;;3.10;99.90;;;;;;4841565;29;21042;-88
2021/01/05 12:36:44;;;;;;;28.03;17.90;;;3.10;99.90;;;;;;4845950;29;20850;-88
2021/01/05 12:39:16;;;;;;;23.67;15.77;;;3.20;99.90;;;;;;4842465;29;20447;-91
2021/01/05 12:41:42;;;;;;;24.73;15.80;;;3.20;99.90;;;;;;4846698;29;20933;-91
2021/01/05 12:44:08;;;;;;;25.50;14.67;;;3.30;99.90;;;;;;4846124;29;20474;-92
2021/01/05 12:46:38;;;;;;;21.90;14.80;;;3.30;99.90;;;;;;4842888;29;20193;-89
2021/01/05 12:49:05;;;;;;;22.53;13.80;;;3.20;99.90;;;;;;4848545;29;20451;-87
2021/01/05 12:51:33;;;;;;;23.10;16.57;;;3.10;99.90;;;;;;4849249;29;20814;-88
2021/01/05 12:53:59;;;;;;;24.57;15.90;;;3.10;99.90;;;;;;4844930;29;20498;-88
2021/01/05 12:56:25;;;;;;;25.83;15.37;;;3.00;99.90;;;;;;4846450;29;20809;-88
2021/01/05 12:58:51;;;;;;;22.67;15.70;;;3.00;99.90;;;;;;4851336;29;20462;-88
2021/01/05 13:01:19;;;;;;;23.50;15.20;;;2.90;99.90;;;;;;4862787;29;20541;-89